createdAt,value
2018-04-14T00:00:55.255Z,11.30
2018-04-14T00:03:21.388Z,11.20
2018-04-14T00:05:47.859Z,11.20
2018-04-14T00:08:13.943Z,11.20
2018-04-14T00:10:40.053Z,11.30
2018-04-14T00:13:06.871Z,11.30
2018-04-14T00:15:32.975Z,11.20
2018-04-14T00:17:59.073Z,11.30
2018-04-14T00:20:25.176Z,11.30
2018-04-14T00:22:51.297Z,11.30
2018-04-14T00:25:17.532Z,11.30
2018-04-14T00:27:43.598Z,11.30
2018-04-14T00:30:09.711Z,11.30
2018-04-14T00:32:35.848Z,11.20
2018-04-14T00:35:01.989Z,11.20
2018-04-14T00:37:28.077Z,11.20
2018-04-14T00:39:54.428Z,11.20
2018-04-14T00:42:21.244Z,11.10
2018-04-14T00:44:47.342Z,11.10
2018-04-14T00:47:13.457Z,11.10
2018-04-14T00:49:40.282Z,11.10
2018-04-14T00:52:06.383Z,11.10
2018-04-14T00:54:32.520Z,11.10
2018-04-14T00:56:58.607Z,11.10
2018-04-14T00:59:24.698Z,11.10
2018-04-14T01:01:50.852Z,11.10
2018-04-14T01:04:16.925Z,11.00
2018-04-14T01:06:43.017Z,11.00
2018-04-14T01:09:09.147Z,11.00
2018-04-14T01:11:35.252Z,11.00
2018-04-14T01:14:02.067Z,11.00
2018-04-14T01:16:28.196Z,11.00
2018-04-14T01:18:54.257Z,11.00
2018-04-14T01:21:20.367Z,11.00
2018-04-14T01:23:46.520Z,11.10
2018-04-14T01:26:12.628Z,11.10
2018-04-14T01:28:39.757Z,11.10
2018-04-14T01:31:05.871Z,11.00
2018-04-14T01:33:31.959Z,11.00
2018-04-14T01:35:58.717Z,11.10
2018-04-14T01:38:25.874Z,11.00
2018-04-14T01:40:51.999Z,11.00
2018-04-14T01:43:18.978Z,11.10
2018-04-14T01:45:45.108Z,11.00
2018-04-14T01:48:11.213Z,11.00
2018-04-14T01:50:37.633Z,11.00
2018-04-14T01:53:03.764Z,11.10
2018-04-14T01:55:29.851Z,11.00
2018-04-14T01:57:56.694Z,11.00
2018-04-14T02:00:22.825Z,11.00
2018-04-14T02:02:49.303Z,11.00
2018-04-14T02:05:15.388Z,11.00
2018-04-14T02:07:41.560Z,10.90
2018-04-14T02:10:08.406Z,10.90
2018-04-14T02:12:34.515Z,10.90
2018-04-14T02:15:01.183Z,10.90
2018-04-14T02:17:28.118Z,11.00
2018-04-14T02:19:54.301Z,10.90
2018-04-14T02:22:21.139Z,10.90
2018-04-14T02:24:47.262Z,10.90
2018-04-14T02:27:13.357Z,10.90
2018-04-14T02:29:39.487Z,10.90
2018-04-14T02:32:05.599Z,10.90
2018-04-14T02:34:31.684Z,10.90
2018-04-14T02:36:57.936Z,10.90
2018-04-14T02:39:24.039Z,10.90
2018-04-14T02:41:50.204Z,10.80
2018-04-14T02:44:16.328Z,10.80
2018-04-14T02:46:42.461Z,10.90
2018-04-14T02:49:08.560Z,10.80
2018-04-14T02:51:34.762Z,10.90
2018-04-14T02:54:00.863Z,10.90
2018-04-14T02:56:27.741Z,10.90
2018-04-14T02:58:53.854Z,10.80
2018-04-14T03:01:20.689Z,10.80
2018-04-14T03:03:46.762Z,10.80
2018-04-14T03:06:12.906Z,10.80
2018-04-14T03:08:39.024Z,10.80
2018-04-14T03:11:05.862Z,10.80
2018-04-14T03:13:31.988Z,10.80
2018-04-14T03:15:58.098Z,10.80
2018-04-14T03:18:24.200Z,10.80
2018-04-14T03:20:51.050Z,10.90
2018-04-14T03:23:17.921Z,10.90
2018-04-14T03:25:44.072Z,10.80
2018-04-14T03:28:10.195Z,10.90
2018-04-14T03:30:36.284Z,10.80
2018-04-14T03:33:02.401Z,10.90
2018-04-14T03:35:28.522Z,10.80
2018-04-14T03:37:54.602Z,10.80
2018-04-14T03:40:20.699Z,10.90
2018-04-14T03:42:46.832Z,10.90
2018-04-14T03:45:12.927Z,10.90
2018-04-14T03:47:39.777Z,11.00
2018-04-14T03:50:06.652Z,11.00
2018-04-14T03:52:33.487Z,11.00
2018-04-14T03:54:59.601Z,10.90
2018-04-14T03:57:25.720Z,11.00
2018-04-14T03:59:51.831Z,11.00
2018-04-14T04:02:17.958Z,11.00
2018-04-14T04:04:44.797Z,11.00
2018-04-14T04:07:10.929Z,10.90
2018-04-14T04:09:37.044Z,10.90
2018-04-14T04:12:03.134Z,10.90
2018-04-14T04:14:30.021Z,10.80
2018-04-14T04:16:56.132Z,10.80
2018-04-14T04:19:34.529Z,10.80
2018-04-14T04:22:13.051Z,10.80
2018-04-14T04:24:51.474Z,10.80
2018-04-14T04:27:17.573Z,10.80
2018-04-14T04:29:43.703Z,10.80
2018-04-14T04:32:09.801Z,10.80
2018-04-14T04:34:35.899Z,10.70
2018-04-14T04:37:02.021Z,10.70
2018-04-14T04:39:28.127Z,10.70
2018-04-14T04:41:54.991Z,10.60
2018-04-14T04:44:21.889Z,10.60
2018-04-14T04:46:48.074Z,10.60
2018-04-14T04:49:14.190Z,10.60
2018-04-14T04:51:40.290Z,10.60
2018-04-14T04:54:06.424Z,10.60
2018-04-14T04:56:32.529Z,10.60
2018-04-14T04:58:59.351Z,10.60
2018-04-14T05:01:25.477Z,10.50
2018-04-14T05:03:51.558Z,10.60
2018-04-14T05:06:18.434Z,10.70
2018-04-14T05:08:44.536Z,10.60
2018-04-14T05:11:10.618Z,10.60
2018-04-14T05:13:36.748Z,10.60
2018-04-14T05:16:02.838Z,10.60
2018-04-14T05:18:28.951Z,10.60
2018-04-14T05:20:55.056Z,10.70
2018-04-14T05:23:21.122Z,10.70
2018-04-14T05:25:47.240Z,10.70
2018-04-14T05:28:13.333Z,10.70
2018-04-14T05:30:39.454Z,10.60
2018-04-14T05:33:05.559Z,10.70
2018-04-14T05:35:31.631Z,10.70
2018-04-14T05:37:57.743Z,10.60
2018-04-14T05:40:24.069Z,10.60
2018-04-14T05:42:50.142Z,10.70
2018-04-14T05:45:16.344Z,10.70
2018-04-14T05:47:43.646Z,10.60
2018-04-14T05:50:09.767Z,10.60
2018-04-14T05:52:35.854Z,10.60
2018-04-14T05:55:01.954Z,10.70
2018-04-14T05:57:28.043Z,10.60
2018-04-14T05:59:54.173Z,10.60
2018-04-14T06:02:21.028Z,10.60
2018-04-14T06:04:47.204Z,10.60
2018-04-14T06:07:13.308Z,10.70
2018-04-14T06:09:40.132Z,10.80
2018-04-14T06:12:06.254Z,10.70
2018-04-14T06:14:32.338Z,10.90
2018-04-14T06:16:58.448Z,10.80
2018-04-14T06:19:24.544Z,10.90
2018-04-14T06:21:50.620Z,10.80
2018-04-14T06:24:16.750Z,10.80
2018-04-14T06:26:42.828Z,10.80
2018-04-14T06:29:09.751Z,10.80
2018-04-14T06:31:35.822Z,10.70
2018-04-14T06:34:02.653Z,10.60
2018-04-14T06:36:28.757Z,10.70
2018-04-14T06:38:54.864Z,10.70
2018-04-14T06:41:21.700Z,10.70
2018-04-14T06:43:48.548Z,10.80
2018-04-14T06:46:14.657Z,10.70
2018-04-14T06:48:40.752Z,10.70
2018-04-14T06:51:06.940Z,10.90
2018-04-14T06:53:33.079Z,11.00
2018-04-14T06:55:59.162Z,11.00
2018-04-14T06:58:26.033Z,11.00
2018-04-14T07:00:52.123Z,11.00
2018-04-14T07:03:18.231Z,11.20
2018-04-14T07:05:44.355Z,11.40
2018-04-14T07:08:10.497Z,11.80
2018-04-14T07:10:36.603Z,12.00
2018-04-14T07:13:03.488Z,11.90
2018-04-14T07:15:29.590Z,11.80
2018-04-14T07:17:56.459Z,11.70
2018-04-14T07:20:23.314Z,11.90
2018-04-14T07:22:49.448Z,11.80
2018-04-14T07:25:16.267Z,12.10
2018-04-14T07:27:42.391Z,12.10
2018-04-14T07:30:08.516Z,12.20
2018-04-14T07:32:34.608Z,12.40
2018-04-14T07:35:01.563Z,12.70
2018-04-14T07:37:27.691Z,12.60
2018-04-14T07:39:53.804Z,12.70
2018-04-14T07:42:19.941Z,12.60
2018-04-14T07:44:46.028Z,12.70
2018-04-14T07:47:12.746Z,12.80
2018-04-14T07:49:38.943Z,12.70
2018-04-14T07:52:05.033Z,12.90
2018-04-14T07:54:31.567Z,13.30
2018-04-14T07:56:57.696Z,14.20
2018-04-14T07:59:23.767Z,13.70
2018-04-14T08:01:50.626Z,14.10
2018-04-14T08:04:17.466Z,13.60
2018-04-14T08:06:43.601Z,13.60
2018-04-14T08:09:09.788Z,13.40
2018-04-14T08:11:35.927Z,13.30
2018-04-14T08:14:02.801Z,13.40
2018-04-14T08:16:28.878Z,13.40
2018-04-14T08:18:55.056Z,13.40
2018-04-14T08:21:21.126Z,13.30
2018-04-14T08:23:47.226Z,13.30
2018-04-14T08:26:13.368Z,13.30
2018-04-14T08:28:39.448Z,13.20
2018-04-14T08:31:05.612Z,13.20
2018-04-14T08:33:31.710Z,13.40
2018-04-14T08:35:57.806Z,13.30
2018-04-14T08:38:24.691Z,14.00
2018-04-14T08:40:50.830Z,14.00
2018-04-14T08:43:16.982Z,14.00
2018-04-14T08:45:43.131Z,14.30
2018-04-14T08:48:09.224Z,14.50
2018-04-14T08:50:35.348Z,14.70
2018-04-14T08:53:02.180Z,14.90
2018-04-14T08:55:28.277Z,14.80
2018-04-14T08:57:54.423Z,14.70
2018-04-14T09:00:20.558Z,14.60
2018-04-14T09:02:46.667Z,14.80
2018-04-14T09:05:12.744Z,15.20
2018-04-14T09:07:38.879Z,15.30
2018-04-14T09:10:05.006Z,14.90
2018-04-14T09:12:31.128Z,14.70
2018-04-14T09:14:57.216Z,14.70
2018-04-14T09:17:23.380Z,14.60
2018-04-14T09:19:49.463Z,14.60
2018-04-14T09:22:15.556Z,14.40
2018-04-14T09:24:43.382Z,14.70
2018-04-14T09:27:09.462Z,14.70
2018-04-14T09:29:36.320Z,15.00
2018-04-14T09:32:04.039Z,15.10
2018-04-14T09:34:30.148Z,15.00
2018-04-14T09:36:56.290Z,15.20
2018-04-14T09:39:22.912Z,15.50
2018-04-14T09:41:49.037Z,15.70
2018-04-14T09:44:15.164Z,16.30
2018-04-14T09:46:41.294Z,17.00
2018-04-14T09:49:07.399Z,17.50
2018-04-14T09:51:34.203Z,17.50
2018-04-14T09:54:00.296Z,17.10
2018-04-14T09:56:26.435Z,17.10
2018-04-14T09:58:53.260Z,16.80
2018-04-14T10:01:26.122Z,16.80
2018-04-14T10:03:54.054Z,16.70
2018-04-14T10:06:20.758Z,16.80
2018-04-14T10:08:46.850Z,16.90
2018-04-14T10:11:12.957Z,17.10
2018-04-14T10:13:39.818Z,17.00
2018-04-14T10:16:06.663Z,17.00
2018-04-14T10:18:32.784Z,16.90
2018-04-14T10:20:58.898Z,16.80
2018-04-14T10:23:25.041Z,17.00
2018-04-14T10:25:51.201Z,17.20
2018-04-14T10:28:17.291Z,17.40
2018-04-14T10:30:43.398Z,17.50
2018-04-14T10:33:10.264Z,17.40
2018-04-14T10:35:37.209Z,17.70
2018-04-14T10:38:04.153Z,17.90
2018-04-14T10:40:30.236Z,17.90
2018-04-14T10:42:56.332Z,18.30
2018-04-14T10:45:22.448Z,18.20
2018-04-14T10:47:49.527Z,18.10
2018-04-14T10:50:15.636Z,17.90
2018-04-14T10:52:41.768Z,17.70
2018-04-14T10:55:07.871Z,17.60
2018-04-14T10:57:34.693Z,18.10
2018-04-14T11:00:00.850Z,18.10
2018-04-14T11:02:27.706Z,18.90
2018-04-14T11:04:54.572Z,18.90
2018-04-14T11:07:21.387Z,18.80
2018-04-14T11:09:47.510Z,18.80
2018-04-14T11:12:13.617Z,18.50
2018-04-14T11:14:39.724Z,18.90
2018-04-14T12:14:00.959Z,19.00
2018-04-14T12:16:27.070Z,17.50
2018-04-14T12:18:53.920Z,15.70
2018-04-14T12:21:21.255Z,15.70
2018-04-14T12:23:48.412Z,15.10
2018-04-14T12:26:14.953Z,14.60
2018-04-14T12:28:41.678Z,14.20
2018-04-14T12:31:08.198Z,14.10
2018-04-14T12:33:35.060Z,13.90
2018-04-14T12:36:01.503Z,13.90
2018-04-14T12:38:28.842Z,13.70
2018-04-14T12:40:55.851Z,13.70
2018-04-14T13:35:25.225Z,13.70
2018-04-14T13:37:51.356Z,15.60
2018-04-14T13:40:17.610Z,16.20
2018-04-14T13:42:43.786Z,16.80
2018-04-14T13:45:09.959Z,17.50
2018-04-14T13:47:36.292Z,18.00
2018-04-14T13:50:02.444Z,18.00
2018-04-14T13:52:28.544Z,17.80
2018-04-14T13:54:54.723Z,17.90
2018-04-14T13:57:21.296Z,18.20
2018-04-14T13:59:48.308Z,18.80
2018-04-14T14:02:14.430Z,18.80
2018-04-14T14:04:41.016Z,19.20
2018-04-14T14:07:08.369Z,18.50
2018-04-14T14:09:34.533Z,18.50
2018-04-14T14:12:01.276Z,18.60
2018-04-14T14:14:27.487Z,19.10
2018-04-14T14:16:53.665Z,19.60
2018-04-14T14:19:19.796Z,19.30
2018-04-14T14:21:45.903Z,19.60
2018-04-14T14:24:12.163Z,19.40
2018-04-14T14:26:39.770Z,19.60
2018-04-14T14:31:35.679Z,19.80
2018-04-14T14:53:44.857Z,20.20
2018-04-14T14:56:12.110Z,20.70
2018-04-14T14:58:38.986Z,20.00
2018-04-14T15:01:05.129Z,20.00
2018-04-14T15:03:32.757Z,19.30
2018-04-14T15:05:58.858Z,19.00
2018-04-14T15:08:26.038Z,18.40
2018-04-14T15:10:52.164Z,18.50
2018-04-14T15:13:18.569Z,18.20
2018-04-14T15:15:44.698Z,18.70
2018-04-14T15:18:11.537Z,19.60
2018-04-14T15:20:38.417Z,19.90
2018-04-14T15:23:04.557Z,19.90
2018-04-14T15:25:30.660Z,20.00
2018-04-14T15:27:57.836Z,19.90
2018-04-14T15:30:24.718Z,19.20
2018-04-14T15:32:50.839Z,19.20
2018-04-14T15:35:17.714Z,18.70
2018-04-14T15:37:43.852Z,18.70
2018-04-14T15:40:10.326Z,18.70
2018-04-14T15:45:05.079Z,18.30
2018-04-14T15:47:32.267Z,18.20
2018-04-14T15:49:59.157Z,18.10
2018-04-14T15:52:25.273Z,18.00
2018-04-14T15:54:52.080Z,18.10
2018-04-14T15:57:18.165Z,18.10
2018-04-14T15:59:45.011Z,18.20
2018-04-14T16:02:11.833Z,18.20
2018-04-14T16:04:37.940Z,18.20
2018-04-14T16:07:04.069Z,18.40
2018-04-14T16:09:30.148Z,18.40
2018-04-14T16:11:56.257Z,18.30
2018-04-14T16:14:22.383Z,18.30
2018-04-14T16:16:48.458Z,18.20
2018-04-14T16:19:14.533Z,18.20
2018-04-14T16:21:41.393Z,18.20
2018-04-14T16:24:08.225Z,17.90
2018-04-14T16:26:34.315Z,17.90
2018-04-14T16:29:00.491Z,17.90
2018-04-14T16:31:26.578Z,17.80
2018-04-14T16:33:52.670Z,17.70
2018-04-14T16:36:18.772Z,17.60
2018-04-14T16:38:44.885Z,17.60
2018-04-14T16:41:10.983Z,17.60
2018-04-14T16:43:37.125Z,17.50
2018-04-14T16:46:03.974Z,17.40
2018-04-14T16:48:30.076Z,17.40
2018-04-14T16:50:56.217Z,17.30
2018-04-14T16:53:22.362Z,17.30
2018-04-14T16:55:48.457Z,17.20
2018-04-14T16:58:14.591Z,17.20
2018-04-14T17:00:41.496Z,17.00
2018-04-14T17:03:07.605Z,17.00
2018-04-14T17:05:33.754Z,17.00
2018-04-14T17:07:59.866Z,16.90
2018-04-14T17:10:26.755Z,16.80
2018-04-14T17:12:52.926Z,16.80
2018-04-14T17:15:19.056Z,16.70
2018-04-14T17:17:45.180Z,16.60
2018-04-14T17:20:11.302Z,16.60
2018-04-14T17:22:37.396Z,16.50
2018-04-14T17:25:03.490Z,16.40
2018-04-14T17:27:29.624Z,16.30
2018-04-14T17:29:56.681Z,16.30
2018-04-14T17:32:22.803Z,16.20
2018-04-14T17:34:48.918Z,16.20
2018-04-14T17:37:15.034Z,16.10
2018-04-14T17:39:41.153Z,16.00
2018-04-14T17:42:07.309Z,15.80
2018-04-14T17:44:33.438Z,15.70
2018-04-14T17:46:59.520Z,15.70
2018-04-14T17:49:26.359Z,15.50
2018-04-14T17:51:52.446Z,15.50
2018-04-14T17:54:18.544Z,15.50
2018-04-14T17:56:45.397Z,15.20
2018-04-14T17:59:12.247Z,15.00
2018-04-14T18:01:39.093Z,14.90
2018-04-14T18:04:06.203Z,14.80
2018-04-14T18:06:32.313Z,14.80
2018-04-14T18:08:58.398Z,14.80
2018-04-14T18:11:24.594Z,14.80
2018-04-14T18:13:51.416Z,14.80
2018-04-14T18:16:17.513Z,14.80
2018-04-14T18:18:50.499Z,14.80
2018-04-14T18:21:16.808Z,14.70
2018-04-14T18:23:43.607Z,14.50
2018-04-14T18:26:09.714Z,14.50
2018-04-14T18:28:36.564Z,14.40
2018-04-14T18:31:03.396Z,14.30
2018-04-14T18:33:29.856Z,14.30
2018-04-14T18:35:55.941Z,14.40
2018-04-14T18:38:22.077Z,14.40
2018-04-14T18:40:48.188Z,14.60
2018-04-14T18:43:14.282Z,14.60
2018-04-14T18:45:40.413Z,14.60
2018-04-14T18:48:06.580Z,14.60
2018-04-14T18:50:32.692Z,14.60
2018-04-14T18:52:58.808Z,14.60
2018-04-14T18:55:24.996Z,14.50
2018-04-14T18:57:51.104Z,14.70
2018-04-14T19:00:17.225Z,14.80
2018-04-14T19:02:43.389Z,14.80
2018-04-14T19:05:09.489Z,14.70
2018-04-14T19:07:35.663Z,14.70
2018-04-14T19:10:01.791Z,14.70
2018-04-14T19:12:27.930Z,14.70
2018-04-14T19:14:54.034Z,14.70
2018-04-14T19:17:20.149Z,14.70
2018-04-14T19:19:46.333Z,14.50
2018-04-14T19:22:12.457Z,14.50
2018-04-14T19:24:38.938Z,14.40
2018-04-14T19:27:04.978Z,14.30
2018-04-14T19:29:31.134Z,14.10
2018-04-14T19:31:57.269Z,14.00
2018-04-14T19:34:23.382Z,13.90
2018-04-14T19:36:49.500Z,14.00
2018-04-14T19:39:17.634Z,13.90
2018-04-14T19:41:43.848Z,14.00
2018-04-14T19:44:09.968Z,14.00
2018-04-14T19:46:36.134Z,13.90
2018-04-14T19:49:02.265Z,13.80
2018-04-14T19:51:28.433Z,13.70
2018-04-14T19:53:54.550Z,13.70
2018-04-14T19:56:20.691Z,13.60
2018-04-14T19:58:46.797Z,13.60
2018-04-14T20:01:12.971Z,13.50
2018-04-14T20:03:39.073Z,13.50
2018-04-14T20:06:05.193Z,13.40
2018-04-14T20:08:32.282Z,13.40
2018-04-14T20:10:58.403Z,13.20
2018-04-14T20:13:24.503Z,13.20
2018-04-14T20:15:50.646Z,13.10
2018-04-14T20:18:16.734Z,13.10
2018-04-14T20:20:42.833Z,13.00
2018-04-14T20:23:09.691Z,13.00
2018-04-14T20:25:36.610Z,13.00
2018-04-14T20:28:02.743Z,13.00
2018-04-14T20:30:28.871Z,13.00
2018-04-14T20:32:55.006Z,13.00
2018-04-14T20:35:21.128Z,13.00
2018-04-14T20:37:47.256Z,13.00
2018-04-14T20:40:13.370Z,12.90
2018-04-14T20:42:40.214Z,12.90
2018-04-14T20:45:07.128Z,12.90
2018-04-14T20:47:33.239Z,12.90
2018-04-14T20:49:59.362Z,12.90
2018-04-14T20:52:26.258Z,12.70
2018-04-14T20:54:52.332Z,12.70
2018-04-14T20:57:18.445Z,12.70
2018-04-14T20:59:44.523Z,12.70
2018-04-14T21:02:11.433Z,12.80
2018-04-14T21:04:37.514Z,12.70
2018-04-14T21:07:04.370Z,12.80
2018-04-14T21:09:31.228Z,12.80
2018-04-14T21:11:58.078Z,12.80
2018-04-14T21:14:24.943Z,12.80
2018-04-14T21:16:51.115Z,12.80
2018-04-14T21:19:17.233Z,12.80
2018-04-14T21:21:43.331Z,12.80
2018-04-14T21:24:09.457Z,12.80
2018-04-14T21:26:35.599Z,12.80
2018-04-14T21:29:01.693Z,12.70
2018-04-14T21:31:27.781Z,12.60
2018-04-14T21:33:53.888Z,12.50
2018-04-14T21:36:19.974Z,12.40
2018-04-14T21:38:46.811Z,12.40
2018-04-14T21:41:12.971Z,12.40
2018-04-14T21:43:39.119Z,12.40
2018-04-14T21:46:05.240Z,12.40
2018-04-14T21:48:32.124Z,12.20
2018-04-14T21:50:58.248Z,12.20
2018-04-14T21:53:25.160Z,12.20
2018-04-14T21:55:51.778Z,12.10
2018-04-14T21:58:17.902Z,12.10
2018-04-14T22:00:43.987Z,12.10
2018-04-14T22:03:12.015Z,11.90
2018-04-14T22:05:40.002Z,11.90
2018-04-14T22:08:06.107Z,11.80
2018-04-14T22:10:32.288Z,12.00
2018-04-14T22:12:58.366Z,11.90
2018-04-14T22:15:24.478Z,11.90
2018-04-14T22:17:50.631Z,11.90
2018-04-14T22:20:16.717Z,11.90
2018-04-14T22:22:42.798Z,11.80
2018-04-14T22:28:02.603Z,11.80
2018-04-14T22:30:28.729Z,11.80
2018-04-14T22:32:55.617Z,11.70
2018-04-14T22:35:21.809Z,11.70
2018-04-14T22:37:48.685Z,11.60
2018-04-14T22:40:14.792Z,11.60
2018-04-14T22:42:40.882Z,11.60
2018-04-14T22:45:07.049Z,11.60
2018-04-14T22:47:33.139Z,11.60
2018-04-14T22:49:59.237Z,11.50
2018-04-14T22:52:25.373Z,11.50
2018-04-14T22:54:51.518Z,11.50
2018-04-14T22:57:17.826Z,11.40
2018-04-14T22:59:43.926Z,11.40
2018-04-14T23:02:10.780Z,11.30
2018-04-14T23:04:37.616Z,11.30
2018-04-14T23:07:03.726Z,11.20
2018-04-14T23:09:29.781Z,11.20
2018-04-14T23:11:55.864Z,11.30
2018-04-14T23:14:22.040Z,11.40
2018-04-14T23:16:48.112Z,11.50
2018-04-14T23:19:14.976Z,11.60
2018-04-14T23:21:41.716Z,11.60
2018-04-14T23:24:08.534Z,11.60
2018-04-14T23:26:34.610Z,11.60
2018-04-14T23:29:01.459Z,11.70
2018-04-14T23:31:27.545Z,11.60
2018-04-14T23:33:53.658Z,11.60
2018-04-14T23:36:20.491Z,11.60
2018-04-14T23:38:47.301Z,11.60
2018-04-14T23:41:13.398Z,11.50
2018-04-14T23:43:39.502Z,11.60
2018-04-14T23:46:05.595Z,11.50
2018-04-14T23:48:31.654Z,11.50
2018-04-14T23:50:57.801Z,11.50
2018-04-14T23:53:23.886Z,11.50
2018-04-14T23:55:50.004Z,11.50
2018-04-14T23:58:16.106Z,11.40
